sensor_id;sensor_type;location;lat;lon;timestamp;P1;durP1;ratioP1;P2;durP2;ratioP2
966;SDS011;56108;48.730;9.304;2022-10-31T00:01:26;13.93;;;12.55;;
966;SDS011;56108;48.730;9.304;2022-10-31T00:03:36;14.48;;;13.02;;
966;SDS011;56108;48.730;9.304;2022-10-31T00:05:45;17.20;;;14.18;;
966;SDS011;56108;48.730;9.304;2022-10-31T00:07:54;15.82;;;14.18;;
966;SDS011;56108;48.730;9.304;2022-10-31T00:10:06;18.55;;;14.57;;
966;SDS011;56108;48.730;9.304;2022-10-31T00:12:16;16.90;;;15.15;;
966;SDS011;56108;48.730;9.304;2022-10-31T00:14:24;15.60;;;14.10;;
966;SDS011;56108;48.730;9.304;2022-10-31T00:16:32;15.80;;;14.13;;
966;SDS011;56108;48.730;9.304;2022-10-31T00:18:41;18.17;;;15.57;;
966;SDS011;56108;48.730;9.304;2022-10-31T00:20:57;18.70;;;15.68;;
966;SDS011;56108;48.730;9.304;2022-10-31T00:23:06;20.52;;;15.65;;
966;SDS011;56108;48.730;9.304;2022-10-31T00:25:18;18.80;;;15.90;;
966;SDS011;56108;48.730;9.304;2022-10-31T00:27:27;18.50;;;16.25;;
966;SDS011;56108;48.730;9.304;2022-10-31T00:29:35;16.85;;;15.25;;
966;SDS011;56108;48.730;9.304;2022-10-31T00:31:43;20.55;;;14.93;;
966;SDS011;56108;48.730;9.304;2022-10-31T00:33:51;17.48;;;15.57;;
966;SDS011;56108;48.730;9.304;2022-10-31T00:36:02;16.05;;;14.43;;
966;SDS011;56108;48.730;9.304;2022-10-31T00:38:11;16.17;;;14.52;;
966;SDS011;56108;48.730;9.304;2022-10-31T00:40:22;20.35;;;15.30;;
966;SDS011;56108;48.730;9.304;2022-10-31T00:42:30;16.45;;;14.70;;
966;SDS011;56108;48.730;9.304;2022-10-31T00:44:38;15.38;;;13.70;;
966;SDS011;56108;48.730;9.304;2022-10-31T00:46:47;16.15;;;14.35;;
966;SDS011;56108;48.730;9.304;2022-10-31T00:48:58;16.05;;;14.45;;
966;SDS011;56108;48.730;9.304;2022-10-31T00:51:07;16.85;;;14.75;;
966;SDS011;56108;48.730;9.304;2022-10-31T00:53:18;14.70;;;13.18;;
966;SDS011;56108;48.730;9.304;2022-10-31T00:55:29;15.98;;;14.18;;
966;SDS011;56108;48.730;9.304;2022-10-31T00:57:37;15.25;;;13.27;;
966;SDS011;56108;48.730;9.304;2022-10-31T00:59:45;18.33;;;13.80;;
966;SDS011;56108;48.730;9.304;2022-10-31T01:01:53;14.50;;;12.95;;
966;SDS011;56108;48.730;9.304;2022-10-31T01:04:03;18.63;;;13.05;;
966;SDS011;56108;48.730;9.304;2022-10-31T01:06:12;16.10;;;13.13;;
966;SDS011;56108;48.730;9.304;2022-10-31T01:08:21;17.50;;;13.32;;
966;SDS011;56108;48.730;9.304;2022-10-31T01:10:32;15.25;;;13.65;;
966;SDS011;56108;48.730;9.304;2022-10-31T01:12:41;16.25;;;13.98;;
966;SDS011;56108;48.730;9.304;2022-10-31T01:14:51;17.63;;;13.98;;
966;SDS011;56108;48.730;9.304;2022-10-31T01:17:00;14.82;;;12.95;;
966;SDS011;56108;48.730;9.304;2022-10-31T01:19:08;17.13;;;13.60;;
966;SDS011;56108;48.730;9.304;2022-10-31T01:21:18;14.63;;;13.13;;
966;SDS011;56108;48.730;9.304;2022-10-31T01:23:28;16.98;;;13.07;;
966;SDS011;56108;48.730;9.304;2022-10-31T01:25:39;15.52;;;13.88;;
966;SDS011;56108;48.730;9.304;2022-10-31T01:27:48;14.27;;;12.98;;
966;SDS011;56108;48.730;9.304;2022-10-31T01:29:56;16.05;;;14.02;;
966;SDS011;56108;48.730;9.304;2022-10-31T01:32:05;15.70;;;14.00;;
966;SDS011;56108;48.730;9.304;2022-10-31T01:34:14;16.38;;;13.32;;
966;SDS011;56108;48.730;9.304;2022-10-31T01:36:25;16.23;;;13.80;;
966;SDS011;56108;48.730;9.304;2022-10-31T01:38:34;19.27;;;14.13;;
966;SDS011;56108;48.730;9.304;2022-10-31T01:40:45;16.88;;;14.32;;
966;SDS011;56108;48.730;9.304;2022-10-31T01:42:53;15.90;;;14.18;;
966;SDS011;56108;48.730;9.304;2022-10-31T01:45:02;17.42;;;14.82;;
966;SDS011;56108;48.730;9.304;2022-10-31T01:47:12;17.08;;;14.10;;
966;SDS011;56108;48.730;9.304;2022-10-31T01:49:27;17.52;;;14.70;;
966;SDS011;56108;48.730;9.304;2022-10-31T01:51:41;15.63;;;14.02;;
966;SDS011;56108;48.730;9.304;2022-10-31T01:53:53;16.95;;;14.35;;
966;SDS011;56108;48.730;9.304;2022-10-31T01:56:09;16.17;;;14.35;;
966;SDS011;56108;48.730;9.304;2022-10-31T01:58:19;13.30;;;12.00;;
966;SDS011;56108;48.730;9.304;2022-10-31T02:00:30;17.00;;;13.20;;
966;SDS011;56108;48.730;9.304;2022-10-31T02:02:39;16.40;;;14.70;;
966;SDS011;56108;48.730;9.304;2022-10-31T02:04:47;14.75;;;12.77;;
966;SDS011;56108;48.730;9.304;2022-10-31T02:06:57;14.25;;;12.80;;
966;SDS011;56108;48.730;9.304;2022-10-31T02:09:10;16.13;;;14.27;;
966;SDS011;56108;48.730;9.304;2022-10-31T02:11:23;15.07;;;13.48;;
966;SDS011;56108;48.730;9.304;2022-10-31T02:13:31;13.48;;;11.95;;
966;SDS011;56108;48.730;9.304;2022-10-31T02:15:45;15.10;;;12.18;;
966;SDS011;56108;48.730;9.304;2022-10-31T02:17:57;13.13;;;11.85;;
966;SDS011;56108;48.730;9.304;2022-10-31T02:20:12;14.90;;;12.13;;
966;SDS011;56108;48.730;9.304;2022-10-31T02:22:26;14.30;;;11.90;;
966;SDS011;56108;48.730;9.304;2022-10-31T02:24:46;14.13;;;12.60;;
966;SDS011;56108;48.730;9.304;2022-10-31T02:30:00;16.00;;;12.30;;
966;SDS011;56108;48.730;9.304;2022-10-31T02:32:16;15.52;;;13.15;;
966;SDS011;56108;48.730;9.304;2022-10-31T02:34:31;19.90;;;13.63;;
966;SDS011;56108;48.730;9.304;2022-10-31T02:36:47;14.82;;;13.43;;
966;SDS011;56108;48.730;9.304;2022-10-31T02:39:06;14.10;;;12.50;;
966;SDS011;56108;48.730;9.304;2022-10-31T02:41:24;14.25;;;12.50;;
966;SDS011;56108;48.730;9.304;2022-10-31T02:43:45;13.75;;;12.35;;
966;SDS011;56108;48.730;9.304;2022-10-31T02:46:07;14.23;;;12.50;;
966;SDS011;56108;48.730;9.304;2022-10-31T02:48:24;13.77;;;12.05;;
966;SDS011;56108;48.730;9.304;2022-10-31T02:50:35;18.33;;;13.32;;
966;SDS011;56108;48.730;9.304;2022-10-31T02:52:50;16.70;;;11.85;;
966;SDS011;56108;48.730;9.304;2022-10-31T02:55:09;14.90;;;12.35;;
966;SDS011;56108;48.730;9.304;2022-10-31T02:57:19;13.73;;;12.32;;
966;SDS011;56108;48.730;9.304;2022-10-31T02:59:32;13.70;;;11.70;;
966;SDS011;56108;48.730;9.304;2022-10-31T03:01:54;12.55;;;11.27;;
966;SDS011;56108;48.730;9.304;2022-10-31T03:04:31;13.68;;;11.60;;
966;SDS011;56108;48.730;9.304;2022-10-31T03:06:53;16.90;;;11.50;;
966;SDS011;56108;48.730;9.304;2022-10-31T03:09:09;17.27;;;11.27;;
966;SDS011;56108;48.730;9.304;2022-10-31T03:11:26;14.75;;;11.57;;
966;SDS011;56108;48.730;9.304;2022-10-31T03:13:41;13.27;;;11.20;;
966;SDS011;56108;48.730;9.304;2022-10-31T03:15:54;11.70;;;10.50;;
966;SDS011;56108;48.730;9.304;2022-10-31T03:18:12;11.13;;;10.13;;
966;SDS011;56108;48.730;9.304;2022-10-31T03:20:29;14.15;;;11.27;;
966;SDS011;56108;48.730;9.304;2022-10-31T03:22:41;16.98;;;14.20;;
966;SDS011;56108;48.730;9.304;2022-10-31T03:24:51;15.25;;;11.90;;
966;SDS011;56108;48.730;9.304;2022-10-31T03:27:02;12.75;;;11.45;;
966;SDS011;56108;48.730;9.304;2022-10-31T03:29:25;13.63;;;12.15;;
966;SDS011;56108;48.730;9.304;2022-10-31T03:31:38;12.63;;;11.20;;
966;SDS011;56108;48.730;9.304;2022-10-31T03:33:51;15.35;;;11.88;;
966;SDS011;56108;48.730;9.304;2022-10-31T03:36:10;12.45;;;11.15;;
966;SDS011;56108;48.730;9.304;2022-10-31T03:38:22;15.38;;;11.52;;
966;SDS011;56108;48.730;9.304;2022-10-31T03:40:31;13.88;;;11.05;;
966;SDS011;56108;48.730;9.304;2022-10-31T03:42:43;17.67;;;11.88;;
966;SDS011;56108;48.730;9.304;2022-10-31T03:44:59;13.20;;;11.75;;
966;SDS011;56108;48.730;9.304;2022-10-31T03:47:12;13.02;;;11.05;;
966;SDS011;56108;48.730;9.304;2022-10-31T03:49:25;14.50;;;12.02;;
966;SDS011;56108;48.730;9.304;2022-10-31T03:51:38;14.73;;;12.38;;
966;SDS011;56108;48.730;9.304;2022-10-31T03:53:55;12.77;;;11.38;;
966;SDS011;56108;48.730;9.304;2022-10-31T03:56:09;14.27;;;11.07;;
966;SDS011;56108;48.730;9.304;2022-10-31T03:58:23;18.80;;;12.25;;
966;SDS011;56108;48.730;9.304;2022-10-31T04:00:37;12.93;;;10.65;;
966;SDS011;56108;48.730;9.304;2022-10-31T04:02:50;14.32;;;11.93;;
966;SDS011;56108;48.730;9.304;2022-10-31T04:05:08;16.20;;;11.52;;
966;SDS011;56108;48.730;9.304;2022-10-31T04:07:23;14.85;;;11.93;;
966;SDS011;56108;48.730;9.304;2022-10-31T04:09:36;13.73;;;12.30;;
966;SDS011;56108;48.730;9.304;2022-10-31T04:11:50;12.35;;;10.63;;
966;SDS011;56108;48.730;9.304;2022-10-31T04:14:11;11.90;;;10.70;;
966;SDS011;56108;48.730;9.304;2022-10-31T04:16:20;14.35;;;10.60;;
966;SDS011;56108;48.730;9.304;2022-10-31T04:18:30;13.02;;;11.07;;
966;SDS011;56108;48.730;9.304;2022-10-31T04:20:40;12.32;;;10.55;;
966;SDS011;56108;48.730;9.304;2022-10-31T04:22:52;11.32;;;10.25;;
966;SDS011;56108;48.730;9.304;2022-10-31T04:25:00;12.50;;;11.18;;
966;SDS011;56108;48.730;9.304;2022-10-31T04:27:08;12.52;;;11.10;;
966;SDS011;56108;48.730;9.304;2022-10-31T04:29:17;16.38;;;12.00;;
966;SDS011;56108;48.730;9.304;2022-10-31T04:31:26;12.07;;;10.80;;
966;SDS011;56108;48.730;9.304;2022-10-31T04:33:35;19.50;;;11.27;;
966;SDS011;56108;48.730;9.304;2022-10-31T04:35:44;12.20;;;10.80;;
966;SDS011;56108;48.730;9.304;2022-10-31T04:37:55;13.63;;;12.32;;
966;SDS011;56108;48.730;9.304;2022-10-31T04:40:04;12.40;;;11.20;;
966;SDS011;56108;48.730;9.304;2022-10-31T04:42:19;16.23;;;11.02;;
966;SDS011;56108;48.730;9.304;2022-10-31T04:44:29;13.10;;;11.27;;
966;SDS011;56108;48.730;9.304;2022-10-31T04:46:38;14.25;;;12.75;;
966;SDS011;56108;48.730;9.304;2022-10-31T04:48:48;13.40;;;11.85;;
966;SDS011;56108;48.730;9.304;2022-10-31T04:51:00;14.25;;;12.20;;
966;SDS011;56108;48.730;9.304;2022-10-31T04:53:13;14.40;;;11.82;;
966;SDS011;56108;48.730;9.304;2022-10-31T04:55:41;13.77;;;12.38;;
966;SDS011;56108;48.730;9.304;2022-10-31T04:57:55;14.80;;;12.38;;
966;SDS011;56108;48.730;9.304;2022-10-31T05:00:05;12.48;;;11.23;;
966;SDS011;56108;48.730;9.304;2022-10-31T05:02:14;11.60;;;10.60;;
966;SDS011;56108;48.730;9.304;2022-10-31T05:04:29;14.20;;;11.77;;
966;SDS011;56108;48.730;9.304;2022-10-31T05:06:38;12.63;;;10.80;;
966;SDS011;56108;48.730;9.304;2022-10-31T05:08:48;13.43;;;10.32;;
966;SDS011;56108;48.730;9.304;2022-10-31T05:10:59;13.00;;;11.60;;
966;SDS011;56108;48.730;9.304;2022-10-31T05:13:10;13.60;;;10.85;;
966;SDS011;56108;48.730;9.304;2022-10-31T05:15:42;11.95;;;10.45;;
966;SDS011;56108;48.730;9.304;2022-10-31T05:17:57;15.68;;;10.73;;
966;SDS011;56108;48.730;9.304;2022-10-31T05:20:27;14.35;;;12.05;;
966;SDS011;56108;48.730;9.304;2022-10-31T05:22:41;12.73;;;11.43;;
966;SDS011;56108;48.730;9.304;2022-10-31T05:24:54;13.00;;;11.70;;
966;SDS011;56108;48.730;9.304;2022-10-31T05:27:02;16.33;;;11.88;;
966;SDS011;56108;48.730;9.304;2022-10-31T05:29:11;14.48;;;13.02;;
966;SDS011;56108;48.730;9.304;2022-10-31T05:31:20;15.52;;;11.43;;
966;SDS011;56108;48.730;9.304;2022-10-31T05:33:30;14.32;;;11.27;;
966;SDS011;56108;48.730;9.304;2022-10-31T05:35:57;12.90;;;11.05;;
966;SDS011;56108;48.730;9.304;2022-10-31T05:38:05;12.98;;;10.77;;
966;SDS011;56108;48.730;9.304;2022-10-31T05:40:17;12.93;;;11.60;;
966;SDS011;56108;48.730;9.304;2022-10-31T05:42:26;12.57;;;11.35;;
966;SDS011;56108;48.730;9.304;2022-10-31T05:44:35;21.08;;;11.48;;
966;SDS011;56108;48.730;9.304;2022-10-31T05:46:57;11.93;;;10.80;;
966;SDS011;56108;48.730;9.304;2022-10-31T05:49:24;16.50;;;11.15;;
966;SDS011;56108;48.730;9.304;2022-10-31T05:51:47;12.52;;;11.32;;
966;SDS011;56108;48.730;9.304;2022-10-31T05:54:02;15.20;;;12.07;;
966;SDS011;56108;48.730;9.304;2022-10-31T05:56:20;15.32;;;10.25;;
966;SDS011;56108;48.730;9.304;2022-10-31T05:58:29;12.05;;;10.15;;
966;SDS011;56108;48.730;9.304;2022-10-31T06:00:41;13.82;;;12.40;;
966;SDS011;56108;48.730;9.304;2022-10-31T06:02:56;12.48;;;11.20;;
966;SDS011;56108;48.730;9.304;2022-10-31T06:05:38;17.65;;;16.20;;
966;SDS011;56108;48.730;9.304;2022-10-31T06:07:46;25.20;;;22.23;;
966;SDS011;56108;48.730;9.304;2022-10-31T06:09:55;13.63;;;12.23;;
966;SDS011;56108;48.730;9.304;2022-10-31T06:12:06;16.02;;;11.27;;
966;SDS011;56108;48.730;9.304;2022-10-31T06:14:49;11.52;;;10.40;;
966;SDS011;56108;48.730;9.304;2022-10-31T06:16:57;13.15;;;10.93;;
966;SDS011;56108;48.730;9.304;2022-10-31T06:19:24;13.10;;;11.90;;
966;SDS011;56108;48.730;9.304;2022-10-31T06:21:32;12.75;;;10.98;;
966;SDS011;56108;48.730;9.304;2022-10-31T06:23:41;17.88;;;12.25;;
966;SDS011;56108;48.730;9.304;2022-10-31T06:26:09;11.55;;;10.55;;
966;SDS011;56108;48.730;9.304;2022-10-31T06:28:20;13.63;;;10.70;;
966;SDS011;56108;48.730;9.304;2022-10-31T06:30:38;11.40;;;10.35;;
966;SDS011;56108;48.730;9.304;2022-10-31T06:32:48;12.52;;;10.75;;
966;SDS011;56108;48.730;9.304;2022-10-31T06:34:57;12.30;;;10.63;;
966;SDS011;56108;48.730;9.304;2022-10-31T06:37:06;12.70;;;11.40;;
966;SDS011;56108;48.730;9.304;2022-10-31T06:39:16;11.82;;;10.63;;
966;SDS011;56108;48.730;9.304;2022-10-31T06:41:24;12.10;;;10.45;;
966;SDS011;56108;48.730;9.304;2022-10-31T06:43:36;12.00;;;10.63;;
966;SDS011;56108;48.730;9.304;2022-10-31T06:46:15;19.10;;;11.05;;
966;SDS011;56108;48.730;9.304;2022-10-31T06:48:40;12.25;;;11.10;;
966;SDS011;56108;48.730;9.304;2022-10-31T06:50:57;13.10;;;10.80;;
966;SDS011;56108;48.730;9.304;2022-10-31T06:53:07;13.32;;;11.48;;
966;SDS011;56108;48.730;9.304;2022-10-31T06:55:16;14.48;;;10.95;;
966;SDS011;56108;48.730;9.304;2022-10-31T06:57:25;12.45;;;11.18;;
966;SDS011;56108;48.730;9.304;2022-10-31T06:59:36;12.65;;;11.32;;
966;SDS011;56108;48.730;9.304;2022-10-31T07:01:47;12.88;;;11.57;;
966;SDS011;56108;48.730;9.304;2022-10-31T07:03:56;11.85;;;10.60;;
966;SDS011;56108;48.730;9.304;2022-10-31T07:06:08;13.07;;;11.40;;
966;SDS011;56108;48.730;9.304;2022-10-31T07:08:16;12.20;;;10.90;;
966;SDS011;56108;48.730;9.304;2022-10-31T07:10:25;13.20;;;10.85;;
966;SDS011;56108;48.730;9.304;2022-10-31T07:12:42;13.30;;;12.02;;
966;SDS011;56108;48.730;9.304;2022-10-31T07:14:54;15.30;;;11.68;;
966;SDS011;56108;48.730;9.304;2022-10-31T07:17:02;14.70;;;10.73;;
966;SDS011;56108;48.730;9.304;2022-10-31T07:19:15;14.90;;;11.02;;
966;SDS011;56108;48.730;9.304;2022-10-31T07:21:24;12.63;;;11.32;;
966;SDS011;56108;48.730;9.304;2022-10-31T07:23:35;15.40;;;12.05;;
966;SDS011;56108;48.730;9.304;2022-10-31T07:26:02;13.68;;;12.27;;
966;SDS011;56108;48.730;9.304;2022-10-31T07:28:19;11.73;;;10.60;;
966;SDS011;56108;48.730;9.304;2022-10-31T07:30:31;12.50;;;10.65;;
966;SDS011;56108;48.730;9.304;2022-10-31T07:32:41;12.98;;;11.20;;
966;SDS011;56108;48.730;9.304;2022-10-31T07:34:54;11.15;;;9.98;;
966;SDS011;56108;48.730;9.304;2022-10-31T07:37:14;11.98;;;10.65;;
966;SDS011;56108;48.730;9.304;2022-10-31T07:39:22;11.43;;;10.15;;
966;SDS011;56108;48.730;9.304;2022-10-31T07:41:31;11.68;;;10.23;;
966;SDS011;56108;48.730;9.304;2022-10-31T07:43:39;11.90;;;10.75;;
966;SDS011;56108;48.730;9.304;2022-10-31T07:46:14;11.50;;;10.25;;
966;SDS011;56108;48.730;9.304;2022-10-31T07:48:40;12.05;;;9.55;;
966;SDS011;56108;48.730;9.304;2022-10-31T07:51:07;10.02;;;9.25;;
966;SDS011;56108;48.730;9.304;2022-10-31T07:53:36;11.77;;;10.57;;
966;SDS011;56108;48.730;9.304;2022-10-31T07:55:57;9.73;;;8.73;;
966;SDS011;56108;48.730;9.304;2022-10-31T07:58:07;10.23;;;9.23;;
966;SDS011;56108;48.730;9.304;2022-10-31T08:00:17;11.13;;;9.32;;
966;SDS011;56108;48.730;9.304;2022-10-31T08:02:30;9.20;;;8.40;;
966;SDS011;56108;48.730;9.304;2022-10-31T08:05:10;9.18;;;8.35;;
966;SDS011;56108;48.730;9.304;2022-10-31T08:07:38;10.27;;;8.30;;
966;SDS011;56108;48.730;9.304;2022-10-31T08:09:54;14.48;;;9.32;;
966;SDS011;56108;48.730;9.304;2022-10-31T08:12:07;15.20;;;10.02;;
966;SDS011;56108;48.730;9.304;2022-10-31T08:14:15;10.82;;;9.60;;
966;SDS011;56108;48.730;9.304;2022-10-31T08:16:23;10.25;;;9.20;;
966;SDS011;56108;48.730;9.304;2022-10-31T08:18:39;13.25;;;9.75;;
966;SDS011;56108;48.730;9.304;2022-10-31T08:20:50;9.55;;;8.07;;
966;SDS011;56108;48.730;9.304;2022-10-31T08:23:00;10.57;;;8.95;;
966;SDS011;56108;48.730;9.304;2022-10-31T08:25:12;9.52;;;8.65;;
966;SDS011;56108;48.730;9.304;2022-10-31T08:27:20;10.05;;;9.05;;
966;SDS011;56108;48.730;9.304;2022-10-31T08:29:30;13.63;;;9.55;;
966;SDS011;56108;48.730;9.304;2022-10-31T08:31:39;11.23;;;9.85;;
966;SDS011;56108;48.730;9.304;2022-10-31T08:34:09;9.85;;;8.85;;
966;SDS011;56108;48.730;9.304;2022-10-31T08:36:27;9.68;;;8.77;;
966;SDS011;56108;48.730;9.304;2022-10-31T08:38:36;11.07;;;9.27;;
966;SDS011;56108;48.730;9.304;2022-10-31T08:40:48;9.20;;;8.30;;
966;SDS011;56108;48.730;9.304;2022-10-31T08:42:57;9.02;;;8.20;;
966;SDS011;56108;48.730;9.304;2022-10-31T08:45:07;8.68;;;7.88;;
966;SDS011;56108;48.730;9.304;2022-10-31T08:47:17;10.45;;;8.90;;
966;SDS011;56108;48.730;9.304;2022-10-31T08:49:28;10.20;;;8.23;;
966;SDS011;56108;48.730;9.304;2022-10-31T08:51:37;11.18;;;8.23;;
966;SDS011;56108;48.730;9.304;2022-10-31T08:53:45;9.70;;;8.70;;
966;SDS011;56108;48.730;9.304;2022-10-31T08:56:08;9.32;;;8.43;;
966;SDS011;56108;48.730;9.304;2022-10-31T08:58:17;9.15;;;8.35;;
966;SDS011;56108;48.730;9.304;2022-10-31T09:00:30;10.07;;;8.38;;
966;SDS011;56108;48.730;9.304;2022-10-31T09:02:47;11.35;;;7.90;;
966;SDS011;56108;48.730;9.304;2022-10-31T09:04:59;8.73;;;7.90;;
966;SDS011;56108;48.730;9.304;2022-10-31T09:07:08;11.73;;;8.02;;
966;SDS011;56108;48.730;9.304;2022-10-31T09:09:31;12.52;;;9.10;;
966;SDS011;56108;48.730;9.304;2022-10-31T09:12:08;9.38;;;7.80;;
966;SDS011;56108;48.730;9.304;2022-10-31T09:14:46;9.30;;;7.47;;
966;SDS011;56108;48.730;9.304;2022-10-31T09:17:05;9.48;;;8.57;;
966;SDS011;56108;48.730;9.304;2022-10-31T09:19:39;14.63;;;9.45;;
966;SDS011;56108;48.730;9.304;2022-10-31T09:21:54;10.63;;;9.63;;
966;SDS011;56108;48.730;9.304;2022-10-31T09:24:04;9.88;;;8.55;;
966;SDS011;56108;48.730;9.304;2022-10-31T09:26:13;9.88;;;8.82;;
966;SDS011;56108;48.730;9.304;2022-10-31T09:28:41;9.43;;;8.45;;
966;SDS011;56108;48.730;9.304;2022-10-31T09:30:52;9.95;;;9.05;;
966;SDS011;56108;48.730;9.304;2022-10-31T09:33:21;9.93;;;8.93;;
966;SDS011;56108;48.730;9.304;2022-10-31T09:35:51;10.35;;;9.15;;
966;SDS011;56108;48.730;9.304;2022-10-31T09:38:02;9.70;;;8.70;;
966;SDS011;56108;48.730;9.304;2022-10-31T09:40:12;10.27;;;9.38;;
966;SDS011;56108;48.730;9.304;2022-10-31T09:45:02;10.57;;;9.50;;
966;SDS011;56108;48.730;9.304;2022-10-31T09:47:19;10.55;;;9.55;;
966;SDS011;56108;48.730;9.304;2022-10-31T09:49:59;9.45;;;8.65;;
966;SDS011;56108;48.730;9.304;2022-10-31T09:52:20;9.40;;;8.48;;
966;SDS011;56108;48.730;9.304;2022-10-31T09:54:37;12.60;;;10.43;;
966;SDS011;56108;48.730;9.304;2022-10-31T09:56:51;10.27;;;9.38;;
966;SDS011;56108;48.730;9.304;2022-10-31T09:59:00;14.95;;;9.60;;
966;SDS011;56108;48.730;9.304;2022-10-31T10:01:16;12.55;;;11.35;;
966;SDS011;56108;48.730;9.304;2022-10-31T10:03:34;13.13;;;11.88;;
966;SDS011;56108;48.730;9.304;2022-10-31T10:06:10;11.27;;;9.07;;
966;SDS011;56108;48.730;9.304;2022-10-31T10:08:52;11.20;;;9.05;;
966;SDS011;56108;48.730;9.304;2022-10-31T10:11:43;8.73;;;7.93;;
966;SDS011;56108;48.730;9.304;2022-10-31T10:14:15;10.88;;;8.20;;
966;SDS011;56108;48.730;9.304;2022-10-31T10:16:56;9.50;;;8.27;;
966;SDS011;56108;48.730;9.304;2022-10-31T10:19:38;9.88;;;8.70;;
966;SDS011;56108;48.730;9.304;2022-10-31T10:21:59;11.38;;;8.60;;
966;SDS011;56108;48.730;9.304;2022-10-31T10:24:18;9.55;;;8.50;;
966;SDS011;56108;48.730;9.304;2022-10-31T10:26:36;9.95;;;8.23;;
966;SDS011;56108;48.730;9.304;2022-10-31T10:28:51;9.35;;;8.45;;
966;SDS011;56108;48.730;9.304;2022-10-31T10:31:06;11.35;;;8.90;;
966;SDS011;56108;48.730;9.304;2022-10-31T10:33:19;9.80;;;8.70;;
966;SDS011;56108;48.730;9.304;2022-10-31T10:35:33;9.52;;;8.45;;
966;SDS011;56108;48.730;9.304;2022-10-31T10:37:43;10.32;;;8.90;;
966;SDS011;56108;48.730;9.304;2022-10-31T10:39:59;8.68;;;7.57;;
966;SDS011;56108;48.730;9.304;2022-10-31T10:42:17;9.10;;;8.20;;
966;SDS011;56108;48.730;9.304;2022-10-31T10:44:38;9.27;;;8.45;;
966;SDS011;56108;48.730;9.304;2022-10-31T10:47:03;9.68;;;8.75;;
966;SDS011;56108;48.730;9.304;2022-10-31T10:49:24;9.20;;;8.38;;
966;SDS011;56108;48.730;9.304;2022-10-31T10:51:41;10.27;;;9.27;;
966;SDS011;56108;48.730;9.304;2022-10-31T10:54:33;10.43;;;9.30;;
966;SDS011;56108;48.730;9.304;2022-10-31T10:56:51;12.07;;;9.48;;
966;SDS011;56108;48.730;9.304;2022-10-31T10:59:11;11.85;;;10.70;;
966;SDS011;56108;48.730;9.304;2022-10-31T11:01:23;11.63;;;10.60;;
966;SDS011;56108;48.730;9.304;2022-10-31T11:03:34;10.82;;;9.82;;
966;SDS011;56108;48.730;9.304;2022-10-31T11:05:44;11.93;;;8.40;;
966;SDS011;56108;48.730;9.304;2022-10-31T11:07:55;10.68;;;9.35;;
966;SDS011;56108;48.730;9.304;2022-10-31T11:10:05;10.93;;;8.35;;
966;SDS011;56108;48.730;9.304;2022-10-31T11:12:29;10.98;;;8.77;;
966;SDS011;56108;48.730;9.304;2022-10-31T11:14:46;13.07;;;9.95;;
966;SDS011;56108;48.730;9.304;2022-10-31T11:17:07;10.00;;;9.20;;
966;SDS011;56108;48.730;9.304;2022-10-31T11:19:19;10.57;;;8.20;;
966;SDS011;56108;48.730;9.304;2022-10-31T11:21:31;10.93;;;9.13;;
966;SDS011;56108;48.730;9.304;2022-10-31T11:23:40;10.18;;;8.80;;
966;SDS011;56108;48.730;9.304;2022-10-31T11:25:50;9.80;;;9.00;;
966;SDS011;56108;48.730;9.304;2022-10-31T11:28:02;11.15;;;10.00;;
966;SDS011;56108;48.730;9.304;2022-10-31T11:30:18;10.77;;;9.73;;
966;SDS011;56108;48.730;9.304;2022-10-31T11:32:27;13.73;;;10.30;;
966;SDS011;56108;48.730;9.304;2022-10-31T11:34:38;10.30;;;8.63;;
966;SDS011;56108;48.730;9.304;2022-10-31T11:36:54;9.60;;;8.70;;
966;SDS011;56108;48.730;9.304;2022-10-31T11:39:04;12.25;;;9.20;;
966;SDS011;56108;48.730;9.304;2022-10-31T11:41:24;9.25;;;8.32;;
966;SDS011;56108;48.730;9.304;2022-10-31T11:43:37;12.15;;;9.05;;
966;SDS011;56108;48.730;9.304;2022-10-31T11:45:49;10.55;;;9.00;;
966;SDS011;56108;48.730;9.304;2022-10-31T11:47:59;9.98;;;8.98;;
966;SDS011;56108;48.730;9.304;2022-10-31T11:50:18;10.32;;;8.60;;
966;SDS011;56108;48.730;9.304;2022-10-31T11:52:30;10.40;;;8.68;;
966;SDS011;56108;48.730;9.304;2022-10-31T11:54:44;9.13;;;8.23;;
966;SDS011;56108;48.730;9.304;2022-10-31T11:56:57;8.60;;;7.80;;
966;SDS011;56108;48.730;9.304;2022-10-31T11:59:12;14.15;;;8.82;;
966;SDS011;56108;48.730;9.304;2022-10-31T12:01:29;8.75;;;7.32;;
966;SDS011;56108;48.730;9.304;2022-10-31T12:03:42;10.98;;;8.10;;
966;SDS011;56108;48.730;9.304;2022-10-31T12:05:58;11.32;;;8.40;;
966;SDS011;56108;48.730;9.304;2022-10-31T12:08:11;9.30;;;8.35;;
966;SDS011;56108;48.730;9.304;2022-10-31T12:10:23;8.93;;;7.80;;
966;SDS011;56108;48.730;9.304;2022-10-31T12:12:39;8.75;;;7.80;;
966;SDS011;56108;48.730;9.304;2022-10-31T12:15:15;9.60;;;8.70;;
966;SDS011;56108;48.730;9.304;2022-10-31T12:17:39;8.70;;;7.80;;
966;SDS011;56108;48.730;9.304;2022-10-31T12:19:56;14.85;;;8.48;;
966;SDS011;56108;48.730;9.304;2022-10-31T12:22:13;9.77;;;8.82;;
966;SDS011;56108;48.730;9.304;2022-10-31T12:24:35;9.48;;;8.57;;
966;SDS011;56108;48.730;9.304;2022-10-31T12:27:20;8.90;;;8.07;;
966;SDS011;56108;48.730;9.304;2022-10-31T12:29:52;8.68;;;7.85;;
966;SDS011;56108;48.730;9.304;2022-10-31T12:32:15;9.60;;;7.68;;
966;SDS011;56108;48.730;9.304;2022-10-31T12:37:13;11.27;;;8.00;;
966;SDS011;56108;48.730;9.304;2022-10-31T12:39:32;10.73;;;8.00;;
966;SDS011;56108;48.730;9.304;2022-10-31T12:41:51;10.55;;;8.25;;
966;SDS011;56108;48.730;9.304;2022-10-31T12:44:05;8.52;;;7.55;;
966;SDS011;56108;48.730;9.304;2022-10-31T12:46:23;8.55;;;7.65;;
966;SDS011;56108;48.730;9.304;2022-10-31T12:51:28;10.88;;;8.30;;
966;SDS011;56108;48.730;9.304;2022-10-31T12:53:50;13.95;;;7.35;;
966;SDS011;56108;48.730;9.304;2022-10-31T12:56:19;9.82;;;7.50;;
966;SDS011;56108;48.730;9.304;2022-10-31T12:58:45;8.18;;;7.38;;
966;SDS011;56108;48.730;9.304;2022-10-31T13:01:01;9.82;;;8.20;;
966;SDS011;56108;48.730;9.304;2022-10-31T13:03:18;8.27;;;7.47;;
966;SDS011;56108;48.730;9.304;2022-10-31T13:05:36;11.07;;;8.27;;
966;SDS011;56108;48.730;9.304;2022-10-31T13:07:52;10.48;;;8.30;;
966;SDS011;56108;48.730;9.304;2022-10-31T13:10:05;9.70;;;8.80;;
966;SDS011;56108;48.730;9.304;2022-10-31T13:12:22;10.50;;;8.15;;
966;SDS011;56108;48.730;9.304;2022-10-31T13:14:38;9.95;;;8.90;;
966;SDS011;56108;48.730;9.304;2022-10-31T13:16:48;15.20;;;9.10;;
966;SDS011;56108;48.730;9.304;2022-10-31T13:18:58;10.30;;;7.95;;
966;SDS011;56108;48.730;9.304;2022-10-31T13:21:13;8.38;;;7.50;;
966;SDS011;56108;48.730;9.304;2022-10-31T13:23:29;9.77;;;7.90;;
966;SDS011;56108;48.730;9.304;2022-10-31T13:25:54;8.70;;;7.57;;
966;SDS011;56108;48.730;9.304;2022-10-31T13:28:08;10.43;;;7.70;;
966;SDS011;56108;48.730;9.304;2022-10-31T13:30:29;10.10;;;7.47;;
966;SDS011;56108;48.730;9.304;2022-10-31T13:32:41;8.20;;;7.60;;
966;SDS011;56108;48.730;9.304;2022-10-31T13:34:54;7.95;;;7.32;;
966;SDS011;56108;48.730;9.304;2022-10-31T13:37:07;7.40;;;6.60;;
966;SDS011;56108;48.730;9.304;2022-10-31T13:39:30;9.95;;;8.55;;
966;SDS011;56108;48.730;9.304;2022-10-31T13:41:49;10.60;;;8.13;;
966;SDS011;56108;48.730;9.304;2022-10-31T13:44:04;9.15;;;8.27;;
966;SDS011;56108;48.730;9.304;2022-10-31T13:46:23;8.45;;;7.25;;
966;SDS011;56108;48.730;9.304;2022-10-31T13:48:41;9.02;;;7.55;;
966;SDS011;56108;48.730;9.304;2022-10-31T13:51:08;8.38;;;7.60;;
966;SDS011;56108;48.730;9.304;2022-10-31T13:53:19;9.05;;;8.13;;